createdAt,value
2019-01-05T00:02:10.067Z,23.00
2019-01-05T00:05:10.173Z,19.23
2019-01-05T00:07:56.541Z,15.80
2019-01-05T00:10:44.591Z,23.67
2019-01-05T00:13:31.417Z,20.92
2019-01-05T00:16:18.974Z,22.05
2019-01-05T00:19:13.413Z,17.77
2019-01-05T00:22:18.770Z,16.67
2019-01-05T00:25:07.256Z,17.82
2019-01-05T00:28:02.605Z,17.02
2019-01-05T00:30:51.761Z,15.53
2019-01-05T00:33:47.672Z,18.70
2019-01-05T00:36:52.857Z,21.95
2019-01-05T00:39:44.605Z,17.75
2019-01-05T00:42:32.839Z,17.85
2019-01-05T00:45:21.083Z,16.25
2019-01-05T00:48:16.791Z,17.73
2019-01-05T00:51:10.080Z,18.77
2019-01-05T00:54:07.559Z,16.10
2019-01-05T00:57:00.058Z,19.05
2019-01-05T00:59:51.907Z,16.70
2019-01-05T01:02:39.961Z,17.60
2019-01-05T01:05:37.400Z,13.48
2019-01-05T01:08:32.027Z,14.85
2019-01-05T01:11:18.317Z,15.90
2019-01-05T01:14:04.623Z,14.78
2019-01-05T01:16:51.402Z,20.05
2019-01-05T01:19:39.340Z,16.95
2019-01-05T01:22:25.593Z,16.10
2019-01-05T01:25:13.258Z,17.10
2019-01-05T01:28:00.092Z,13.30
2019-01-05T01:31:01.188Z,16.23
2019-01-05T01:33:49.054Z,12.90
2019-01-05T01:36:37.379Z,16.62
2019-01-05T01:39:46.036Z,13.45
2019-01-05T01:42:36.537Z,17.00
2019-01-05T01:45:27.599Z,14.47
2019-01-05T01:48:23.352Z,13.20
2019-01-05T01:51:11.629Z,17.45
2019-01-05T01:54:03.809Z,11.33
2019-01-05T01:56:50.159Z,16.60
2019-01-05T02:00:16.007Z,16.00
2019-01-05T02:03:06.095Z,14.33
2019-01-05T02:05:58.398Z,16.97
2019-01-05T02:08:51.433Z,16.65
2019-01-05T02:11:32.907Z,15.03
2019-01-05T02:14:20.170Z,15.08
2019-01-05T02:17:22.928Z,16.93
2019-01-05T02:20:59.899Z,14.15
2019-01-05T02:24:54.101Z,17.05
2019-01-05T02:28:07.554Z,14.58
2019-01-05T02:31:54.897Z,11.88
2019-01-05T02:35:03.925Z,13.20
2019-01-05T02:38:27.689Z,12.20
2019-01-05T02:42:10.997Z,11.97
2019-01-05T02:46:06.712Z,12.82
2019-01-05T02:49:38.030Z,16.50
2019-01-05T02:53:56.791Z,11.10
2019-01-05T02:57:47.272Z,12.25
2019-01-05T03:01:40.036Z,17.30
2019-01-05T03:05:43.619Z,14.68
2019-01-05T03:09:28.026Z,17.55
2019-01-05T03:12:37.352Z,12.53
2019-01-05T03:16:28.210Z,14.60
2019-01-05T03:20:16.591Z,16.87
2019-01-05T03:24:13.135Z,13.95
2019-01-05T03:27:56.376Z,16.55
2019-01-05T03:31:50.844Z,20.23
2019-01-05T03:35:48.531Z,16.50
2019-01-05T03:39:22.380Z,15.03
2019-01-05T03:42:43.783Z,18.82
2019-01-05T03:46:38.245Z,13.95
2019-01-05T03:50:26.775Z,15.98
2019-01-05T03:54:31.122Z,14.87
2019-01-05T03:58:25.204Z,15.32
2019-01-05T04:01:55.350Z,14.40
2019-01-05T04:05:41.358Z,16.32
2019-01-05T04:09:34.084Z,13.68
2019-01-05T04:13:10.801Z,15.58
2019-01-05T04:16:45.098Z,13.93
2019-01-05T04:20:39.061Z,12.15
2019-01-05T04:24:48.077Z,16.05
2019-01-05T04:28:33.258Z,13.08
2019-01-05T04:32:30.932Z,19.07
2019-01-05T04:35:50.097Z,15.60
2019-01-05T04:39:49.763Z,15.15
2019-01-05T04:43:41.834Z,13.38
2019-01-05T04:47:10.724Z,17.40
2019-01-05T04:50:53.859Z,14.00
2019-01-05T04:54:34.043Z,15.23
2019-01-05T04:57:58.529Z,14.20
2019-01-05T05:01:57.042Z,17.35
2019-01-05T05:05:23.513Z,15.50
2019-01-05T05:08:56.357Z,15.20
2019-01-05T05:13:24.123Z,17.35
2019-01-05T05:16:45.368Z,14.28
2019-01-05T05:20:51.187Z,16.25
2019-01-05T05:24:54.940Z,19.07
2019-01-05T05:28:47.651Z,18.52
2019-01-05T05:33:00.254Z,12.33
2019-01-05T05:36:31.864Z,15.50
2019-01-05T05:40:15.466Z,16.17
2019-01-05T05:43:58.821Z,12.73
2019-01-05T05:47:53.694Z,13.00
2019-01-05T05:51:34.921Z,15.85
2019-01-05T05:55:20.169Z,16.52
2019-01-05T05:59:31.412Z,15.38
2019-01-05T06:03:25.633Z,15.23
2019-01-05T06:07:11.341Z,17.42
2019-01-05T06:11:03.987Z,16.93
2019-01-05T06:14:54.208Z,18.57
2019-01-05T06:19:06.420Z,16.73
2019-01-05T06:22:59.228Z,19.42
2019-01-05T06:26:51.632Z,15.58
2019-01-05T06:30:48.217Z,18.42
2019-01-05T06:35:18.910Z,19.15
2019-01-05T06:39:11.397Z,16.93
2019-01-05T06:42:52.535Z,16.70
2019-01-05T06:46:40.734Z,17.20
2019-01-05T06:50:22.088Z,14.28
2019-01-05T06:54:12.197Z,18.82
2019-01-05T06:58:02.388Z,21.40
2019-01-05T07:02:04.383Z,18.02
2019-01-05T07:05:59.095Z,15.10
2019-01-05T07:10:18.655Z,19.35
2019-01-05T07:13:47.581Z,17.95
2019-01-05T07:17:41.936Z,19.17
2019-01-05T07:21:56.082Z,18.87
2019-01-05T07:25:45.502Z,20.08
2019-01-05T07:29:36.915Z,21.95
2019-01-05T07:33:38.809Z,20.43
2019-01-05T07:37:18.138Z,27.20
2019-01-05T07:41:14.964Z,18.50
2019-01-05T07:45:25.817Z,18.23
2019-01-05T07:49:41.417Z,19.52
2019-01-05T07:53:25.182Z,18.00
2019-01-05T07:57:40.228Z,14.38
2019-01-05T08:01:37.995Z,19.62
2019-01-05T08:05:40.394Z,24.12
2019-01-05T08:09:25.857Z,19.85
2019-01-05T08:13:33.263Z,18.42
2019-01-05T08:17:34.996Z,17.62
2019-01-05T08:21:17.153Z,19.65
2019-01-05T08:25:14.196Z,19.52
2019-01-05T08:29:18.181Z,18.95
2019-01-05T08:33:04.352Z,20.57
2019-01-05T08:37:16.652Z,18.65
2019-01-05T08:41:16.448Z,21.95
2019-01-05T08:45:00.707Z,15.85
2019-01-05T08:49:05.434Z,22.55
2019-01-05T08:52:47.600Z,18.25
2019-01-05T08:57:00.719Z,18.30
2019-01-05T09:00:37.204Z,20.77
2019-01-05T09:04:17.287Z,19.95
2019-01-05T09:07:45.956Z,17.40
2019-01-05T09:11:37.313Z,27.50
2019-01-05T09:15:14.938Z,27.00
2019-01-05T09:19:00.412Z,17.70
2019-01-05T09:22:48.885Z,17.55
2019-01-05T09:27:00.456Z,17.87
2019-01-05T09:31:00.775Z,25.88
2019-01-05T09:34:34.810Z,26.85
2019-01-05T09:38:25.979Z,35.28
2019-01-05T09:42:17.818Z,27.90
2019-01-05T09:46:04.400Z,30.88
2019-01-05T09:50:00.298Z,28.02
2019-01-05T09:54:13.062Z,30.70
2019-01-05T09:58:24.760Z,28.10
2019-01-05T10:02:23.355Z,29.37
2019-01-05T10:06:11.048Z,29.02
2019-01-05T10:10:07.185Z,28.55
2019-01-05T10:14:26.372Z,21.55
2019-01-05T10:18:17.405Z,19.57
2019-01-05T10:22:02.604Z,22.05
2019-01-05T10:26:18.084Z,15.05
2019-01-05T10:29:59.923Z,13.30
2019-01-05T10:33:54.138Z,15.70
2019-01-05T10:37:55.225Z,10.35
2019-01-05T10:41:48.741Z,18.17
2019-01-05T10:45:46.586Z,17.20
2019-01-05T10:49:40.284Z,15.30
2019-01-05T10:53:44.561Z,20.30
2019-01-05T10:57:37.821Z,18.10
2019-01-05T11:02:00.888Z,17.20
2019-01-05T11:05:52.981Z,17.10
2019-01-05T11:09:31.370Z,18.30
2019-01-05T11:13:35.799Z,17.32
2019-01-05T11:17:40.060Z,22.80
2019-01-05T11:22:09.498Z,25.30
2019-01-05T11:25:55.927Z,24.35
2019-01-05T11:30:02.438Z,22.62
2019-01-05T11:33:27.074Z,22.70
2019-01-05T11:37:37.835Z,24.98
2019-01-05T11:41:25.458Z,20.50
2019-01-05T11:45:03.534Z,21.02
2019-01-05T11:48:29.215Z,21.65
2019-01-05T11:52:09.340Z,17.20
2019-01-05T11:55:53.949Z,16.73
2019-01-05T11:59:44.005Z,16.90
2019-01-05T12:03:34.303Z,15.35
2019-01-05T12:07:19.865Z,13.38
2019-01-05T12:10:58.334Z,11.08
2019-01-05T12:14:55.415Z,10.25
2019-01-05T12:19:19.364Z,16.30
2019-01-05T12:23:32.757Z,22.82
2019-01-05T12:27:51.602Z,28.73
2019-01-05T12:32:03.179Z,30.08
2019-01-05T12:35:48.744Z,34.95
2019-01-05T12:39:52.083Z,28.07
2019-01-05T12:43:59.167Z,34.30
2019-01-05T12:48:21.167Z,25.30
2019-01-05T12:52:29.168Z,25.48
2019-01-05T12:56:15.499Z,18.82
2019-01-05T13:00:21.317Z,6.97
2019-01-05T13:04:26.592Z,7.40
2019-01-05T13:08:39.837Z,7.70
2019-01-05T13:12:30.781Z,3.73
2019-01-05T13:16:54.463Z,3.37
2019-01-05T13:20:48.525Z,3.33
2019-01-05T13:25:00.451Z,2.40
2019-01-05T13:28:43.284Z,2.80
2019-01-05T13:32:23.662Z,4.80
2019-01-05T13:36:09.833Z,2.70
2019-01-05T13:40:11.679Z,5.40
2019-01-05T13:44:35.943Z,5.93
2019-01-05T13:48:32.461Z,5.37
2019-01-05T13:52:33.252Z,7.00
2019-01-05T13:55:35.633Z,4.20
2019-01-05T13:58:23.080Z,3.43
2019-01-05T14:01:19.470Z,3.13
2019-01-05T14:04:10.526Z,4.40
2019-01-05T14:06:57.315Z,2.20
2019-01-05T14:09:45.467Z,0.87
2019-01-05T14:12:32.591Z,0.70
2019-01-05T14:15:38.565Z,2.00
2019-01-05T14:18:25.104Z,3.03
2019-01-05T14:21:24.899Z,1.43
2019-01-05T14:24:11.442Z,1.07
2019-01-05T14:26:55.426Z,0.80
2019-01-05T14:29:58.914Z,1.53
2019-01-05T14:32:41.374Z,1.30
2019-01-05T14:35:27.778Z,1.00
2019-01-05T14:38:24.873Z,1.87
2019-01-05T14:41:11.212Z,0.63
2019-01-05T14:43:59.277Z,2.60
2019-01-05T14:46:50.364Z,7.37
2019-01-05T14:49:53.336Z,0.80
2019-01-05T14:52:39.878Z,0.67
2019-01-05T14:55:20.782Z,0.80
2019-01-05T14:58:07.390Z,0.80
2019-01-05T15:00:54.004Z,0.70
2019-01-05T15:03:46.951Z,1.00
2019-01-05T15:06:33.422Z,2.40
2019-01-05T15:09:24.492Z,3.13
2019-01-05T15:12:11.007Z,1.10
2019-01-05T15:14:59.734Z,0.70
2019-01-05T15:17:46.418Z,0.93
2019-01-05T15:20:43.577Z,1.00
2019-01-05T15:23:31.758Z,3.23
2019-01-05T15:26:27.640Z,1.53
2019-01-05T15:29:15.618Z,2.80
2019-01-05T15:32:03.975Z,1.43
2019-01-05T15:34:53.056Z,1.93
2019-01-05T15:37:43.789Z,2.70
2019-01-05T15:40:37.844Z,3.00
2019-01-05T15:43:24.507Z,2.83
2019-01-05T15:46:27.096Z,2.10
2019-01-05T15:49:13.695Z,3.90
2019-01-05T15:52:03.454Z,11.50
2019-01-05T15:54:55.341Z,5.20
2019-01-05T15:57:49.717Z,21.02
2019-01-05T16:00:41.181Z,35.70
2019-01-05T16:03:40.273Z,108.83
2019-01-05T16:06:28.287Z,81.13
2019-01-05T16:09:14.950Z,59.63
2019-01-05T16:12:01.580Z,24.72
2019-01-05T16:14:44.487Z,12.07
2019-01-05T16:17:32.442Z,7.87
2019-01-05T16:20:29.569Z,6.87
2019-01-05T16:23:19.041Z,7.42
2019-01-05T16:26:21.499Z,6.97
2019-01-05T16:29:10.200Z,6.03
2019-01-05T16:32:04.131Z,7.75
2019-01-05T16:34:50.636Z,4.20
2019-01-05T16:37:40.414Z,4.42
2019-01-05T16:40:40.290Z,4.85
2019-01-05T16:43:31.169Z,5.58
2019-01-05T16:46:22.197Z,3.98
2019-01-05T16:49:09.080Z,4.85
2019-01-05T16:51:55.433Z,2.45
2019-01-05T16:54:56.209Z,4.28
2019-01-05T16:57:56.708Z,2.17
2019-01-05T17:00:48.324Z,2.27
2019-01-05T17:03:45.112Z,1.70
2019-01-05T17:06:42.056Z,2.10
2019-01-05T17:09:28.897Z,4.57
2019-01-05T17:12:29.459Z,2.23
2019-01-05T17:15:15.909Z,1.47
2019-01-05T17:18:03.980Z,3.00
2019-01-05T17:20:59.204Z,1.73
2019-01-05T17:23:47.224Z,2.00
2019-01-05T17:26:38.117Z,2.30
2019-01-05T17:29:25.602Z,4.50
2019-01-05T17:32:13.140Z,3.80
2019-01-05T17:35:06.156Z,2.25
2019-01-05T17:37:52.884Z,1.93
2019-01-05T17:40:39.501Z,1.05
2019-01-05T17:43:21.506Z,3.37
2019-01-05T17:46:21.599Z,2.75
2019-01-05T17:49:20.745Z,4.50
2019-01-05T17:52:17.869Z,3.77
2019-01-05T17:55:19.429Z,4.22
2019-01-05T17:58:19.430Z,3.08
2019-01-05T18:01:09.993Z,4.20
2019-01-05T18:03:53.875Z,5.45
2019-01-05T18:07:00.104Z,6.58
2019-01-05T18:10:03.323Z,8.13
2019-01-05T18:12:49.671Z,8.50
2019-01-05T18:15:46.026Z,8.53
2019-01-05T18:18:34.230Z,10.15
2019-01-05T18:21:19.944Z,11.05
2019-01-05T18:24:08.439Z,6.47
2019-01-05T18:26:55.115Z,9.25
2019-01-05T18:29:47.358Z,6.30
2019-01-05T18:32:35.166Z,6.72
2019-01-05T18:35:21.735Z,4.28
2019-01-05T18:38:12.754Z,5.80
2019-01-05T18:41:06.704Z,3.83
2019-01-05T18:44:06.443Z,4.15
2019-01-05T18:47:00.329Z,5.37
2019-01-05T18:49:48.592Z,5.20
2019-01-05T18:52:38.553Z,6.40
2019-01-05T18:55:22.322Z,2.02
2019-01-05T18:58:12.382Z,4.97
2019-01-05T19:01:03.930Z,2.72
2019-01-05T19:03:44.493Z,3.55
2019-01-05T19:06:31.278Z,3.40
2019-01-05T19:09:18.409Z,3.30
2019-01-05T19:12:09.038Z,4.35
2019-01-05T19:14:55.994Z,2.42
2019-01-05T19:17:56.837Z,2.35
2019-01-05T19:20:45.526Z,2.40
2019-01-05T19:23:36.741Z,2.95
2019-01-05T19:26:25.918Z,3.67
2019-01-05T19:29:23.132Z,10.25
2019-01-05T19:32:13.942Z,8.00
2019-01-05T19:35:00.706Z,10.00
2019-01-05T19:37:49.953Z,9.30
2019-01-05T19:40:35.381Z,15.98
2019-01-05T19:43:21.508Z,20.65
2019-01-05T19:46:08.046Z,12.05
2019-01-05T19:48:54.789Z,16.10
2019-01-05T19:51:48.990Z,15.75
2019-01-05T19:54:43.047Z,12.85
2019-01-05T19:57:32.046Z,8.05
2019-01-05T20:00:25.963Z,6.30
2019-01-05T20:03:12.937Z,6.92
2019-01-05T20:06:01.119Z,6.22
2019-01-05T20:08:47.643Z,6.55
2019-01-05T20:11:47.284Z,6.72
2019-01-05T20:14:38.746Z,9.63
2019-01-05T20:17:26.614Z,9.90
2019-01-05T20:20:19.296Z,9.10
2019-01-05T20:23:05.843Z,8.35
2019-01-05T20:25:56.424Z,8.08
2019-01-05T20:28:56.908Z,7.40
2019-01-05T20:31:58.218Z,7.95
2019-01-05T20:34:46.401Z,9.20
2019-01-05T20:37:34.375Z,8.95
2019-01-05T20:40:28.375Z,7.85
2019-01-05T20:43:15.290Z,7.53
2019-01-05T20:46:25.990Z,6.47
2019-01-05T20:49:14.517Z,8.08
2019-01-05T20:52:01.167Z,7.00
2019-01-05T20:54:58.488Z,6.33
2019-01-05T20:57:45.594Z,6.65
2019-01-05T21:00:30.906Z,9.05
2019-01-05T21:03:25.947Z,5.05
2019-01-05T21:06:25.813Z,10.50
2019-01-05T21:09:12.514Z,6.90
2019-01-05T21:12:03.417Z,14.25
2019-01-05T21:14:49.998Z,11.40
2019-01-05T21:17:35.870Z,13.72
2019-01-05T21:20:36.307Z,12.25
2019-01-05T21:23:24.403Z,12.98
2019-01-05T21:26:09.626Z,9.80
2019-01-05T21:28:59.681Z,11.90
2019-01-05T21:31:55.099Z,12.37
2019-01-05T21:34:46.482Z,10.80
2019-01-05T21:37:40.406Z,13.45
2019-01-05T21:40:43.289Z,14.45
2019-01-05T21:43:37.095Z,13.13
2019-01-05T21:46:22.947Z,10.25
2019-01-05T21:49:23.152Z,11.30
2019-01-05T21:52:13.985Z,11.50
2019-01-05T21:55:00.624Z,9.23
2019-01-05T21:57:56.419Z,11.95
2019-01-05T22:01:05.893Z,11.00
2019-01-05T22:03:53.198Z,10.18
2019-01-05T22:06:39.814Z,10.85
2019-01-05T22:09:21.300Z,21.90
2019-01-05T22:12:18.150Z,14.07
2019-01-05T22:15:04.738Z,11.35
2019-01-05T22:17:57.322Z,9.38
2019-01-05T22:20:39.822Z,11.10
2019-01-05T22:23:25.233Z,9.40
2019-01-05T22:26:28.072Z,10.60
2019-01-05T22:29:15.834Z,13.68
2019-01-05T22:32:20.501Z,16.05
2019-01-05T22:35:08.531Z,11.97
2019-01-05T22:38:05.361Z,13.50
2019-01-05T22:40:51.815Z,13.58
2019-01-05T22:43:38.485Z,8.95
2019-01-05T22:46:26.438Z,13.00
2019-01-05T22:49:17.775Z,11.40
2019-01-05T22:52:04.375Z,10.25
2019-01-05T22:54:52.279Z,13.62
2019-01-05T22:57:38.721Z,13.08
2019-01-05T23:00:30.647Z,10.00
2019-01-05T23:03:21.244Z,8.55
2019-01-05T23:06:12.950Z,11.90
2019-01-05T23:09:06.681Z,9.60
2019-01-05T23:12:06.533Z,12.30
2019-01-05T23:15:09.513Z,7.90
2019-01-05T23:17:53.012Z,9.60
2019-01-05T23:20:43.744Z,11.68
2019-01-05T23:23:30.206Z,13.18
2019-01-05T23:26:16.935Z,9.88
2019-01-05T23:29:17.010Z,7.12
2019-01-05T23:32:05.176Z,8.65
2019-01-05T23:34:52.920Z,9.43
2019-01-05T23:37:44.402Z,9.90
2019-01-05T23:40:31.006Z,9.15
2019-01-05T23:43:17.679Z,12.78
2019-01-05T23:46:10.663Z,12.20
2019-01-05T23:48:53.118Z,11.90
2019-01-05T23:51:38.001Z,8.78
2019-01-05T23:54:24.979Z,7.87
2019-01-05T23:57:11.653Z,9.33
